شیراز, ایران

06:26 PM +0330 on نوامبر 24, 2017 (GMT +0330)
Shahid Dastghaib International | | Change Station

Elev 4875 ft 29.53 °N, 52.58 °E | Updated 26 minutes ago

صاف
صاف
48 °F
Feels Like 48 °F
N
5
باد متغير باد from جنوب غربی

امروز
High -- | Low -- °F
--% Chance of Precip.
دیروز
High -- | Low -- °F
Precip. -- در
فشار 30.12 در
ديد 6.2 مايل، ميل (در برابر كيلومتر
ابری Few 4000 ft
قطره شبنم 27 °F
رطوبت 43%
بارش باران 0.00 در
برف عمیق Not available.
6:29 AM 5:00 PM
Waxing Crescent, 30% visible
METAR OISS 241430Z 23004KT 9999 FEW040 09/M03 Q1020 A3014
فشار 30.12 در
ديد 6.2 مايل، ميل (در برابر كيلومتر
ابری Few 4000 ft
قطره شبنم 27 °F
رطوبت 43%
بارش باران 0.00 در
برف عمیق Not available.
6:29 AM 5:00 PM
Waxing Crescent, 30% visible
METAR OISS 241430Z 23004KT 9999 FEW040 09/M03 Q1020 A3014

Get Severe Weather Alerts

Thanks for signing up!

Be on the lookout for a verification email in your inbox.

You'll start receiving the daily forecast at 6 AM.

×

10-Day Weather Forecast

No radar image for this location.
×

Almanac

ستاره شناسی

Nov. 24, 2017 Rise Set
وقت حقیقی
تاریک و روشن اجتماعی
تاریک روشن دریایی
شفق و فلق نجومی
ماه
میزان روشنایی روز
طول روز
Tomorrow will be .
, % of the Moon is Illuminated

Today's Extremes

Country Highs Country Lows

Community

WunderPhotos

Category 6

Welcome to Category 6. This is the collective home for Weather Underground's featured writeups by Dr. Jeff Masters (right), Bob Henson (left), Chris Burt, and other regular contributors.

Nearby

تمیزی هوا

  تمیزی هوا AQ Index آلاینده
Not available.

عمق برف

Station Depth Elevation

Earthquake Activity

شهر Distance Mag. Time & Date
Minimum magnitude displayed is 2.5.

Coastal Water Temperatures

منطقه درجه حرارت

Stations

Nearby Weather Stations

Station Location دما باد سرد قطره شبنم رطوبت باد Precip. Elev ارتقا دادن Type